createdAt,value
2023-06-11T00:02:07.786Z,16.21
2023-06-11T00:04:36.922Z,16.20
2023-06-11T00:07:06.708Z,16.20
2023-06-11T00:09:35.095Z,16.20
2023-06-11T00:12:03.715Z,16.19
2023-06-11T00:14:32.079Z,16.19
2023-06-11T00:17:00.700Z,16.18
2023-06-11T00:19:30.519Z,16.16
2023-06-11T00:22:00.332Z,16.13
2023-06-11T00:24:28.754Z,16.11
2023-06-11T00:26:57.047Z,16.09
2023-06-11T00:29:25.500Z,16.07
2023-06-11T00:31:53.972Z,16.05
2023-06-11T00:34:22.429Z,16.03
2023-06-11T00:36:50.972Z,16.01
2023-06-11T00:39:19.966Z,15.99
2023-06-11T00:41:49.973Z,15.97
2023-06-11T00:44:22.951Z,15.97
2023-06-11T00:46:54.048Z,15.96
2023-06-11T00:49:24.983Z,15.95
2023-06-11T00:51:53.922Z,15.93
2023-06-11T00:54:22.455Z,15.91
2023-06-11T00:56:52.534Z,15.90
2023-06-11T00:59:21.488Z,15.89
2023-06-11T01:02:06.331Z,15.86
2023-06-11T01:04:36.590Z,15.83
2023-06-11T01:07:08.283Z,15.79
2023-06-11T01:09:38.276Z,15.74
2023-06-11T01:12:09.832Z,15.71
2023-06-11T01:14:41.121Z,15.68
2023-06-11T01:17:16.895Z,15.66
2023-06-11T01:20:11.012Z,15.64
2023-06-11T01:23:17.913Z,15.63
2023-06-11T01:26:17.909Z,15.62
2023-06-11T01:28:50.673Z,15.58
2023-06-11T01:31:20.076Z,15.55
2023-06-11T01:33:49.229Z,15.53
2023-06-11T01:36:22.590Z,15.50
2023-06-11T01:38:52.396Z,15.46
2023-06-11T01:41:34.913Z,15.43
2023-06-11T01:44:04.591Z,15.43
2023-06-11T01:46:33.477Z,15.42
2023-06-11T01:49:02.064Z,15.42
2023-06-11T01:51:30.824Z,15.40
2023-06-11T01:53:59.132Z,15.39
2023-06-11T01:56:28.183Z,15.38
2023-06-11T01:58:59.314Z,15.37
2023-06-11T02:01:30.392Z,15.36
2023-06-11T02:03:58.792Z,15.34
2023-06-11T02:06:27.224Z,15.34
2023-06-11T02:08:55.766Z,15.36
2023-06-11T02:11:23.920Z,15.36
2023-06-11T02:13:52.854Z,15.35
2023-06-11T02:16:21.273Z,15.35
2023-06-11T02:18:49.548Z,15.34
2023-06-11T02:21:18.050Z,15.34
2023-06-11T02:23:46.436Z,15.33
2023-06-11T02:26:14.863Z,15.34
2023-06-11T02:28:43.208Z,15.35
2023-06-11T02:31:11.772Z,15.36
2023-06-11T02:33:40.145Z,15.35
2023-06-11T02:36:11.239Z,15.36
2023-06-11T02:38:39.607Z,15.35
2023-06-11T02:41:07.890Z,15.36
2023-06-11T02:43:36.200Z,15.37
2023-06-11T02:46:04.723Z,15.38
2023-06-11T02:48:33.138Z,15.39
2023-06-11T02:51:02.607Z,15.39
2023-06-11T02:53:30.994Z,15.39
2023-06-11T02:55:59.406Z,15.41
2023-06-11T02:58:27.731Z,15.43
2023-06-11T03:00:56.375Z,15.43
2023-06-11T03:03:24.762Z,15.43
2023-06-11T03:05:54.544Z,15.44
2023-06-11T03:08:22.919Z,15.46
2023-06-11T03:10:51.431Z,15.48
2023-06-11T03:13:20.125Z,15.51
2023-06-11T03:15:49.515Z,15.51
2023-06-11T03:18:18.078Z,15.52
2023-06-11T03:20:46.477Z,15.52
2023-06-11T03:23:15.949Z,15.53
2023-06-11T03:25:44.872Z,15.55
2023-06-11T03:28:13.321Z,15.57
2023-06-11T03:30:41.631Z,15.58
2023-06-11T03:33:10.181Z,15.59
2023-06-11T03:35:38.545Z,15.60
2023-06-11T03:38:14.632Z,15.62
2023-06-11T03:40:43.208Z,15.63
2023-06-11T03:43:11.965Z,15.64
2023-06-11T03:45:41.326Z,15.65
2023-06-11T03:48:09.828Z,15.66
2023-06-11T03:50:38.294Z,15.66
2023-06-11T03:53:06.771Z,15.67
2023-06-11T03:55:35.183Z,15.70
2023-06-11T03:58:03.418Z,15.69
2023-06-11T04:00:33.365Z,15.70
2023-06-11T04:03:02.298Z,15.70
2023-06-11T04:05:37.802Z,15.70
2023-06-11T04:08:07.167Z,15.71
2023-06-11T04:10:35.599Z,15.71
2023-06-11T04:13:04.934Z,15.69
2023-06-11T04:15:33.517Z,15.68
2023-06-11T04:18:06.677Z,15.70
2023-06-11T04:20:34.994Z,15.71
2023-06-11T04:23:03.262Z,15.70
2023-06-11T04:25:34.868Z,15.70
2023-06-11T04:28:04.464Z,15.72
2023-06-11T04:30:34.829Z,15.74
2023-06-11T04:33:04.414Z,15.78
2023-06-11T04:35:35.642Z,15.81
2023-06-11T04:38:06.599Z,15.83
2023-06-11T04:40:37.581Z,15.86
2023-06-11T04:43:08.156Z,15.88
2023-06-11T04:45:37.470Z,15.90
2023-06-11T04:48:06.276Z,15.91
2023-06-11T04:50:37.651Z,15.93
2023-06-11T04:53:07.068Z,15.95
2023-06-11T04:55:39.798Z,15.96
2023-06-11T04:58:09.661Z,15.98
2023-06-11T05:00:38.760Z,16.05
2023-06-11T05:03:08.220Z,16.11
2023-06-11T05:05:37.082Z,16.17
2023-06-11T05:08:06.325Z,16.19
2023-06-11T05:10:35.180Z,16.17
2023-06-11T05:13:03.723Z,16.16
2023-06-11T05:15:33.434Z,16.18
2023-06-11T05:18:02.027Z,16.21
2023-06-11T05:20:31.301Z,16.23
2023-06-11T05:23:00.792Z,16.26
2023-06-11T05:25:32.697Z,16.29
2023-06-11T05:28:07.574Z,16.33
2023-06-11T05:30:37.819Z,16.37
2023-06-11T05:33:08.307Z,16.40
2023-06-11T05:35:38.874Z,16.41
2023-06-11T05:38:10.832Z,16.42
2023-06-11T05:40:40.502Z,16.42
2023-06-11T05:43:08.768Z,16.41
2023-06-11T05:45:37.905Z,16.41
2023-06-11T05:48:07.477Z,16.40
2023-06-11T05:50:37.952Z,16.39
2023-06-11T05:53:06.320Z,16.40
2023-06-11T05:55:35.153Z,16.40
2023-06-11T05:58:03.749Z,16.41
2023-06-11T06:00:37.735Z,16.42
2023-06-11T06:03:10.403Z,16.44
2023-06-11T06:05:39.065Z,16.44
2023-06-11T06:08:07.890Z,16.45
2023-06-11T06:10:36.508Z,16.44
2023-06-11T06:13:04.959Z,16.42
2023-06-11T06:15:33.437Z,16.41
2023-06-11T06:18:04.144Z,16.42
2023-06-11T06:20:38.600Z,16.44
2023-06-11T06:23:06.979Z,16.45
2023-06-11T06:25:39.820Z,16.46
2023-06-11T06:28:10.429Z,16.49
2023-06-11T06:30:41.119Z,16.52
2023-06-11T06:33:10.234Z,16.54
2023-06-11T06:35:40.450Z,16.55
2023-06-11T06:38:09.295Z,16.57
2023-06-11T06:40:38.042Z,16.60
2023-06-11T06:43:06.351Z,16.62
2023-06-11T06:45:36.155Z,16.67
2023-06-11T06:48:11.211Z,16.74
2023-06-11T06:50:39.650Z,16.79
2023-06-11T06:53:08.193Z,16.85
2023-06-11T06:55:36.738Z,16.93
2023-06-11T06:58:36.713Z,17.04
2023-06-11T07:01:05.860Z,17.17
2023-06-11T07:03:37.800Z,17.28
2023-06-11T07:06:09.693Z,17.40
2023-06-11T07:08:42.387Z,17.55
2023-06-11T07:11:11.169Z,17.71
2023-06-11T07:13:48.028Z,17.85
2023-06-11T07:16:16.521Z,17.98
2023-06-11T07:18:52.966Z,18.10
2023-06-11T07:21:21.490Z,18.29
2023-06-11T07:23:49.931Z,18.47
2023-06-11T07:26:19.433Z,18.58
2023-06-11T07:28:48.259Z,18.61
2023-06-11T07:31:16.886Z,18.64
2023-06-11T07:33:45.684Z,18.63
2023-06-11T07:36:14.264Z,18.63
2023-06-11T07:38:45.144Z,18.72
2023-06-11T07:41:14.432Z,18.83
2023-06-11T07:43:42.926Z,18.94
2023-06-11T07:46:16.433Z,19.01
2023-06-11T07:48:46.180Z,19.04
2023-06-11T07:51:19.232Z,19.06
2023-06-11T07:53:50.192Z,19.07
2023-06-11T07:56:18.581Z,19.15
2023-06-11T07:58:46.990Z,19.19
2023-06-11T08:01:15.398Z,19.22
2023-06-11T08:03:43.845Z,19.21
2023-06-11T08:06:13.221Z,19.18
2023-06-11T08:08:41.628Z,19.07
2023-06-11T08:11:10.183Z,19.02
2023-06-11T08:13:39.684Z,19.06
2023-06-11T08:16:11.094Z,19.20
2023-06-11T08:18:39.568Z,19.31
2023-06-11T08:21:07.975Z,19.33
2023-06-11T08:23:39.987Z,19.34
2023-06-11T08:26:10.794Z,19.34
2023-06-11T08:28:39.360Z,19.42
2023-06-11T08:31:07.706Z,19.48
2023-06-11T08:33:36.172Z,19.74
2023-06-11T08:36:04.725Z,19.90
2023-06-11T08:38:33.105Z,19.91
2023-06-11T08:41:01.598Z,19.97
2023-06-11T08:43:30.065Z,20.12
2023-06-11T08:45:58.404Z,20.30
2023-06-11T08:48:30.226Z,20.64
2023-06-11T08:51:03.090Z,20.73
2023-06-11T08:53:32.520Z,20.65
2023-06-11T08:56:01.114Z,20.68
2023-06-11T08:58:32.660Z,20.65
2023-06-11T09:01:14.151Z,20.68
2023-06-11T09:03:42.499Z,20.65
2023-06-11T09:06:11.664Z,20.59
2023-06-11T09:08:41.207Z,20.56
2023-06-11T09:11:09.515Z,20.47
2023-06-11T09:13:41.214Z,20.34
2023-06-11T09:16:15.141Z,20.22
2023-06-11T09:18:44.358Z,20.18
2023-06-11T09:21:13.183Z,20.21
2023-06-11T09:23:41.586Z,20.28
2023-06-11T09:26:09.939Z,20.36
2023-06-11T09:28:38.444Z,20.49
2023-06-11T09:31:06.750Z,20.66
2023-06-11T09:33:37.735Z,20.83
2023-06-11T09:36:06.516Z,20.79
2023-06-11T09:38:37.985Z,20.72
2023-06-11T09:41:08.195Z,20.69
2023-06-11T09:43:36.704Z,20.67
2023-06-11T09:46:07.203Z,20.67
2023-06-11T09:48:36.466Z,20.69
2023-06-11T09:51:07.155Z,20.67
2023-06-11T09:53:36.333Z,20.69
2023-06-11T09:56:11.467Z,20.77
2023-06-11T09:58:41.912Z,20.83
2023-06-11T10:01:12.060Z,20.89
2023-06-11T10:03:41.179Z,20.97
2023-06-11T10:06:17.198Z,20.97
2023-06-11T10:08:50.217Z,20.87
2023-06-11T10:11:23.292Z,20.70
2023-06-11T10:14:02.153Z,20.61
2023-06-11T10:16:33.050Z,20.63
2023-06-11T10:19:10.678Z,20.65
2023-06-11T10:21:50.682Z,20.69
2023-06-11T10:24:23.355Z,20.76
2023-06-11T10:27:13.817Z,20.93
2023-06-11T10:29:46.929Z,21.24
2023-06-11T10:32:24.217Z,21.58
2023-06-11T10:34:58.624Z,21.89
2023-06-11T10:37:29.792Z,22.44
2023-06-11T10:39:58.611Z,22.77
2023-06-11T10:42:40.018Z,22.90
2023-06-11T10:45:10.255Z,23.09
2023-06-11T10:47:55.354Z,23.07
2023-06-11T10:50:31.871Z,23.04
2023-06-11T10:53:04.066Z,23.01
2023-06-11T10:55:34.148Z,23.14
2023-06-11T10:58:03.531Z,23.41
2023-06-11T11:00:35.567Z,23.43
2023-06-11T11:03:05.968Z,23.09
2023-06-11T11:05:34.625Z,23.03
2023-06-11T11:08:03.065Z,23.18
2023-06-11T11:10:31.971Z,23.02
2023-06-11T11:13:00.388Z,22.77
2023-06-11T11:15:30.408Z,22.48
2023-06-11T11:17:59.110Z,22.51
2023-06-11T11:20:27.628Z,22.91
2023-06-11T11:22:57.800Z,23.38
2023-06-11T11:25:31.465Z,23.54
2023-06-11T11:28:00.199Z,23.47
2023-06-11T11:30:30.187Z,23.19
2023-06-11T11:32:58.674Z,22.87
2023-06-11T11:35:29.735Z,22.67
2023-06-11T11:37:58.349Z,22.64
2023-06-11T11:40:33.898Z,22.44
2023-06-11T11:43:15.008Z,22.13
2023-06-11T11:45:51.273Z,22.14
2023-06-11T11:48:35.951Z,22.54
2023-06-11T11:51:10.501Z,23.04
2023-06-11T11:53:39.005Z,23.53
2023-06-11T11:56:07.707Z,23.72
2023-06-11T11:58:38.667Z,23.92
2023-06-11T12:01:12.031Z,24.17
2023-06-11T12:04:00.034Z,24.46
2023-06-11T12:06:30.571Z,24.83
2023-06-11T12:08:59.497Z,24.89
2023-06-11T12:11:31.068Z,24.52
2023-06-11T12:14:02.292Z,24.18
2023-06-11T12:16:30.928Z,24.37
2023-06-11T12:19:10.322Z,24.64
2023-06-11T12:21:49.920Z,24.86
2023-06-11T12:24:18.806Z,25.02
2023-06-11T12:26:49.638Z,24.83
2023-06-11T12:29:18.947Z,24.37
2023-06-11T12:31:48.292Z,24.00
2023-06-11T12:34:17.273Z,24.13
2023-06-11T12:36:47.997Z,24.38
2023-06-11T12:39:16.496Z,24.34
2023-06-11T12:41:46.202Z,23.94
2023-06-11T12:44:14.820Z,23.77
2023-06-11T12:46:43.514Z,23.98
2023-06-11T12:49:14.183Z,24.28
2023-06-11T12:51:47.034Z,24.63
2023-06-11T12:54:16.461Z,24.64
2023-06-11T12:56:47.175Z,24.36
2023-06-11T12:59:16.482Z,24.01
2023-06-11T13:01:51.197Z,23.60
2023-06-11T13:04:25.965Z,23.24
2023-06-11T13:06:54.567Z,23.32
2023-06-11T13:09:23.899Z,23.58
2023-06-11T13:11:54.862Z,23.84
2023-06-11T13:14:26.127Z,24.21
2023-06-11T13:16:56.024Z,24.53
2023-06-11T13:19:25.575Z,24.56
2023-06-11T13:21:59.412Z,24.62
2023-06-11T13:24:28.428Z,24.74
2023-06-11T13:27:01.936Z,24.81
2023-06-11T13:29:30.556Z,24.82
2023-06-11T13:32:02.350Z,24.90
2023-06-11T13:34:32.384Z,24.88
2023-06-11T13:37:02.310Z,24.86
2023-06-11T13:39:30.915Z,24.89
2023-06-11T13:41:59.433Z,24.79
2023-06-11T13:44:27.977Z,24.67
2023-06-11T13:46:56.615Z,24.76
2023-06-11T13:49:27.279Z,24.69
2023-06-11T13:51:57.028Z,24.64
2023-06-11T13:54:29.492Z,24.36
2023-06-11T13:56:58.936Z,24.17
2023-06-11T13:59:27.874Z,24.18
2023-06-11T14:02:02.520Z,24.25
2023-06-11T14:04:31.641Z,24.31
2023-06-11T14:07:01.999Z,24.23
2023-06-11T14:09:32.146Z,23.97
2023-06-11T14:12:00.438Z,23.65
2023-06-11T14:14:32.596Z,23.53
2023-06-11T14:17:06.490Z,23.57
2023-06-11T14:19:42.956Z,23.68
2023-06-11T14:22:14.574Z,23.72
2023-06-11T14:24:43.113Z,23.78
2023-06-11T14:27:11.707Z,23.83
2023-06-11T14:29:40.319Z,23.90
2023-06-11T14:32:08.794Z,23.96
2023-06-11T14:34:38.484Z,24.00
2023-06-11T14:37:06.955Z,23.99
2023-06-11T14:39:35.285Z,23.94
2023-06-11T14:42:06.623Z,23.87
2023-06-11T14:44:35.551Z,23.83
2023-06-11T14:47:04.869Z,23.76
2023-06-11T14:49:33.355Z,23.68
2023-06-11T14:52:02.095Z,23.55
2023-06-11T14:54:30.536Z,23.50
2023-06-11T14:56:59.057Z,23.60
2023-06-11T14:59:29.547Z,23.71
2023-06-11T15:01:58.159Z,23.66
2023-06-11T15:04:26.543Z,23.54
2023-06-11T15:06:55.032Z,23.39
2023-06-11T15:09:23.881Z,23.18
2023-06-11T15:11:52.277Z,23.08
2023-06-11T15:14:20.636Z,23.00
2023-06-11T15:16:49.424Z,22.98
2023-06-11T15:19:17.877Z,22.99
2023-06-11T15:21:55.194Z,23.03
2023-06-11T15:24:23.836Z,23.09
2023-06-11T15:26:52.344Z,23.17
2023-06-11T15:29:20.731Z,23.16
2023-06-11T15:31:51.115Z,23.08
2023-06-11T15:34:21.146Z,22.91
2023-06-11T15:36:51.618Z,22.68
2023-06-11T15:39:20.105Z,22.41
2023-06-11T15:41:48.483Z,22.17
2023-06-11T15:44:19.944Z,22.04
2023-06-11T15:46:48.325Z,21.99
2023-06-11T15:49:16.814Z,21.88
2023-06-11T15:51:46.385Z,21.74
2023-06-11T15:54:17.116Z,21.62
2023-06-11T15:56:47.850Z,21.51
2023-06-11T15:59:16.526Z,21.43
2023-06-11T16:01:45.093Z,21.35
2023-06-11T16:04:14.370Z,21.33
2023-06-11T16:06:43.024Z,21.37
2023-06-11T16:09:11.554Z,21.36
2023-06-11T16:11:40.046Z,21.26
2023-06-11T16:14:08.585Z,21.11
2023-06-11T16:16:39.406Z,20.97
2023-06-11T16:19:07.807Z,20.87
2023-06-11T16:21:39.121Z,20.75
2023-06-11T16:24:07.817Z,20.61
2023-06-11T16:26:36.201Z,20.52
2023-06-11T16:29:06.559Z,20.49
2023-06-11T16:31:35.050Z,20.50
2023-06-11T16:34:03.441Z,20.53
2023-06-11T16:36:32.006Z,20.52
2023-06-11T16:39:12.994Z,20.49
2023-06-11T16:41:49.271Z,20.37
2023-06-11T16:44:19.602Z,20.22
2023-06-11T16:46:48.333Z,20.10
2023-06-11T16:49:17.512Z,19.99
2023-06-11T16:51:46.058Z,19.88
2023-06-11T16:54:17.400Z,19.83
2023-06-11T16:56:47.520Z,19.81
2023-06-11T16:59:16.154Z,19.78
2023-06-11T17:01:46.925Z,19.74
2023-06-11T17:04:15.875Z,19.70
2023-06-11T17:06:47.418Z,19.65
2023-06-11T17:09:18.915Z,19.57
2023-06-11T17:11:47.508Z,19.52
2023-06-11T17:14:21.206Z,19.47
2023-06-11T17:16:51.778Z,19.42
2023-06-11T17:19:25.883Z,19.37
2023-06-11T17:21:54.681Z,19.33
2023-06-11T17:24:24.264Z,19.28
2023-06-11T17:26:53.440Z,19.25
2023-06-11T17:29:30.786Z,19.21
2023-06-11T17:32:05.441Z,19.17
2023-06-11T17:34:39.434Z,19.15
2023-06-11T17:37:09.251Z,19.12
2023-06-11T17:39:41.766Z,19.08
2023-06-11T17:42:14.449Z,19.04
2023-06-11T17:44:43.266Z,19.04
2023-06-11T17:47:15.031Z,19.01
2023-06-11T17:49:46.830Z,18.98
2023-06-11T17:52:17.589Z,18.96
2023-06-11T17:54:47.567Z,18.91
2023-06-11T17:57:16.035Z,18.85
2023-06-11T17:59:46.861Z,18.78
2023-06-11T18:02:15.152Z,18.71
2023-06-11T18:04:43.560Z,18.66
2023-06-11T18:07:12.073Z,18.60
2023-06-11T18:09:40.436Z,18.55
2023-06-11T18:12:09.528Z,18.47
2023-06-11T18:14:37.933Z,18.40
2023-06-11T18:17:06.685Z,18.32
2023-06-11T18:19:35.672Z,18.25
2023-06-11T18:22:04.186Z,18.18
2023-06-11T18:24:33.684Z,18.12
2023-06-11T18:27:03.986Z,18.05
2023-06-11T18:29:34.646Z,17.97
2023-06-11T18:32:03.229Z,17.89
2023-06-11T18:34:32.098Z,17.83
2023-06-11T18:37:00.466Z,17.78
2023-06-11T18:39:28.863Z,17.72
2023-06-11T18:41:57.210Z,17.65
2023-06-11T18:44:25.757Z,17.59
2023-06-11T18:47:01.561Z,17.52
2023-06-11T18:49:30.374Z,17.48
2023-06-11T18:52:00.405Z,17.42
2023-06-11T18:54:31.312Z,17.35
2023-06-11T18:56:59.689Z,17.28
2023-06-11T18:59:29.131Z,17.24
2023-06-11T19:01:58.618Z,17.20
2023-06-11T19:04:26.952Z,17.16
2023-06-11T19:06:55.302Z,17.11
2023-06-11T19:09:23.675Z,17.08
2023-06-11T19:11:52.032Z,17.06
2023-06-11T19:14:20.394Z,17.05
2023-06-11T19:16:49.335Z,17.02
2023-06-11T19:19:18.307Z,16.99
2023-06-11T19:21:49.796Z,16.94
2023-06-11T19:24:18.302Z,16.88
2023-06-11T19:26:49.468Z,16.81
2023-06-11T19:29:17.851Z,16.71
2023-06-11T19:31:47.514Z,16.65
2023-06-11T19:34:19.521Z,16.59
2023-06-11T19:36:49.636Z,16.54
2023-06-11T19:39:17.993Z,16.46
2023-06-11T19:41:46.259Z,16.39
2023-06-11T19:44:14.758Z,16.33
2023-06-11T19:46:44.520Z,16.28
2023-06-11T19:49:13.054Z,16.22
2023-06-11T19:51:41.523Z,16.14
2023-06-11T19:54:11.340Z,16.08
2023-06-11T19:56:39.734Z,16.01
2023-06-11T19:59:14.193Z,15.96
2023-06-11T20:01:43.343Z,15.90
2023-06-11T20:04:11.752Z,15.85
2023-06-11T20:06:40.035Z,15.80
2023-06-11T20:09:10.293Z,15.74
2023-06-11T20:11:38.786Z,15.69
2023-06-11T20:14:07.087Z,15.63
2023-06-11T20:16:35.710Z,15.57
2023-06-11T20:19:04.144Z,15.53
2023-06-11T20:21:34.501Z,15.46
2023-06-11T20:24:02.852Z,15.39
2023-06-11T20:26:31.615Z,15.26
2023-06-11T20:29:00.735Z,15.13
2023-06-11T20:31:29.108Z,15.02
2023-06-11T20:34:00.262Z,14.94
2023-06-11T20:36:29.809Z,14.85
2023-06-11T20:38:58.260Z,14.77
2023-06-11T20:41:27.494Z,14.69
2023-06-11T20:44:21.915Z,14.64
2023-06-11T20:46:51.438Z,14.56
2023-06-11T20:49:19.810Z,14.49
2023-06-11T20:52:13.558Z,14.42
2023-06-11T20:54:42.006Z,14.36
2023-06-11T20:57:10.221Z,14.30
2023-06-11T20:59:38.372Z,14.24
2023-06-11T21:02:06.817Z,14.14
2023-06-11T21:04:38.325Z,14.06
2023-06-11T21:07:07.119Z,14.01
2023-06-11T21:09:35.526Z,13.95
2023-06-11T21:12:04.362Z,13.88
2023-06-11T21:14:32.783Z,13.80
2023-06-11T21:17:00.940Z,13.73
2023-06-11T21:19:29.316Z,13.66
2023-06-11T21:21:57.654Z,13.56
2023-06-11T21:24:25.930Z,13.47
2023-06-11T21:26:54.214Z,13.38
2023-06-11T21:29:22.639Z,13.31
2023-06-11T21:31:51.011Z,13.25
2023-06-11T21:34:19.424Z,13.19
2023-06-11T21:36:48.934Z,13.11
2023-06-11T21:39:17.718Z,13.05
2023-06-11T21:41:45.937Z,12.99
2023-06-11T21:44:15.179Z,12.93
2023-06-11T21:46:43.837Z,12.86
2023-06-11T21:49:12.224Z,12.80
2023-06-11T21:51:40.545Z,12.73
2023-06-11T21:54:08.786Z,12.68
2023-06-11T21:56:37.037Z,12.61
2023-06-11T21:59:05.415Z,12.57
2023-06-11T22:01:33.891Z,12.53
2023-06-11T22:04:02.574Z,12.48
2023-06-11T22:06:34.526Z,12.41
2023-06-11T22:09:02.963Z,12.37
2023-06-11T22:11:31.812Z,12.34
2023-06-11T22:14:01.974Z,12.29
2023-06-11T22:16:34.088Z,12.23
2023-06-11T22:19:04.071Z,12.18
2023-06-11T22:21:32.443Z,12.13
2023-06-11T22:24:01.583Z,12.08
2023-06-11T22:26:30.164Z,12.04
2023-06-11T22:28:58.486Z,12.00
2023-06-11T22:31:26.801Z,11.92
2023-06-11T22:33:55.097Z,11.87
2023-06-11T22:36:23.387Z,11.82
2023-06-11T22:38:51.671Z,11.77
2023-06-11T22:41:20.192Z,11.73
2023-06-11T22:43:48.498Z,11.70
2023-06-11T22:46:17.301Z,11.67
2023-06-11T22:48:46.514Z,11.65
2023-06-11T22:51:14.894Z,11.61
2023-06-11T22:53:43.369Z,11.57
2023-06-11T22:56:12.825Z,11.53
2023-06-11T22:58:42.241Z,11.49
2023-06-11T23:01:11.095Z,11.45
2023-06-11T23:03:39.950Z,11.40
2023-06-11T23:06:09.850Z,11.36
2023-06-11T23:08:40.697Z,11.32
2023-06-11T23:11:09.990Z,11.28
2023-06-11T23:13:38.277Z,11.24
2023-06-11T23:16:06.707Z,11.19
2023-06-11T23:18:35.962Z,11.14
2023-06-11T23:21:09.480Z,11.10
2023-06-11T23:23:43.104Z,11.06
2023-06-11T23:26:14.078Z,11.02
2023-06-11T23:28:42.486Z,10.97
2023-06-11T23:31:12.027Z,10.93
2023-06-11T23:33:40.847Z,10.90
2023-06-11T23:36:13.918Z,10.85
2023-06-11T23:38:42.981Z,10.79
2023-06-11T23:41:12.517Z,10.75
2023-06-11T23:43:40.879Z,10.71
2023-06-11T23:46:12.661Z,10.67
2023-06-11T23:48:41.755Z,10.60
2023-06-11T23:51:10.555Z,10.54
2023-06-11T23:53:38.836Z,10.49
2023-06-11T23:56:07.225Z,10.45
2023-06-11T23:58:35.635Z,10.42
